Nord Organiser — 3FOF6 — position and weather

sailwx.info

Track history (hours):
 
Tides and Currents Weather Stations Pressure Air Temp Water Temp Dewpoint Dewpoint Depression Visibility Wind Speed Wind Dir Waves Ship Positions

Nord Organiser

Last reported at 2018-May-29 15:15 UTC. Time now 2018-Jul-23 09:46 UTC.
Position S 29°39' E 031°59'.
Warning: this ship's position is 54 days out of date.

Length 182 m; draft 8.1 m.

Type: Tanker. MMSI: 370686000.

Date/timePositionNaut miles runAvg speedWind from/ knotsBaromVisibWave heightAir tempDewpointWater temp
2018-May-29 15:15S 29°39' E 031°59'410.2
2018-May-29 14:53S 29°40' E 031°55'410.0
2018-May-29 14:30S 29°41' E 031°51'5 9.6
2018-May-29 14:00S 29°42' E 031°45'510.0
2018-May-29 13:30S 29°43' E 031°39'612.2
2018-May-29 13:00S 29°44' E 031°33'612.6
2018-May-29 12:30S 29°45' E 031°26'612.9
2018-May-29 12:00S 29°47' E 031°18'612.8
2018-May-29 11:30S 29°49' E 031°11'612.4
2018-May-29 11:00S 29°51' E 031°05'3 6.7
2018-May-29 10:30S 29°53' E 031°02'0 0.0
2018-May-29 09:55S 29°53' E 031°02'0 0.0
2018-May-29 09:28S 29°53' E 031°02'0 0.0
2018-May-29 08:55S 29°53' E 031°02'0 0.0
2018-May-29 08:25S 29°53' E 031°02'0 0.0
2018-May-29 07:58S 29°53' E 031°02'0 0.0
2018-May-29 07:28S 29°53' E 031°02'0 0.0
2018-May-29 06:58S 29°53' E 031°02'  
2018-May-26 19:58S 29°53' E 031°02'0 0.0
2018-May-26 19:31S 29°53' E 031°02'0 0.2
2018-May-26 19:00S 29°53' E 031°02'3 5.4
2018-May-26 18:30S 29°51' E 031°04'3 6.9
2018-May-26 18:00S 29°48' E 031°06'4 8.7
2018-May-26 17:30S 29°46' E 031°10'1 1.6
2018-May-26 17:00S 29°45' E 031°11'0 0.0
2018-May-26 16:30S 29°45' E 031°11'0 0.0
2018-May-26 16:00S 29°45' E 031°11'0 0.0
2018-May-26 15:30S 29°45' E 031°11'0 0.0
2018-May-26 15:00S 29°45' E 031°11'0 0.0
2018-May-26 14:30S 29°45' E 031°11'0 0.1
2018-May-26 14:00S 29°45' E 031°11'0 0.0
2018-May-26 13:30S 29°45' E 031°11'0 0.1
2018-May-26 13:00S 29°45' E 031°11'0 0.0
2018-May-26 12:30S 29°45' E 031°11'0 0.1
2018-May-26 12:00S 29°45' E 031°11'0 0.0
2018-May-26 11:30S 29°45' E 031°11'0 0.1
2018-May-26 11:00S 29°45' E 031°11'0 0.0
2018-May-26 10:30S 29°45' E 031°11'0 0.0
2018-May-26 10:00S 29°45' E 031°11'0 0.0
2018-May-26 09:30S 29°45' E 031°11'0 0.0
2018-May-26 09:00S 29°45' E 031°11'0 0.0
2018-May-26 08:30S 29°45' E 031°11'0 0.0
2018-May-26 08:00S 29°45' E 031°11'0 0.0
2018-May-26 07:30S 29°45' E 031°11'0 0.0
2018-May-26 07:00S 29°45' E 031°11'0 0.0
2018-May-26 06:30S 29°45' E 031°11'0 0.0
2018-May-26 05:30S 29°45' E 031°11'0 0.0
2018-May-26 05:00S 29°45' E 031°11'0 0.0
2018-May-26 04:30S 29°45' E 031°11'0 0.0
2018-May-26 04:00S 29°45' E 031°11'0 0.0
2018-May-26 03:30S 29°45' E 031°11'0 0.0
2018-May-26 03:00S 29°45' E 031°11'0 0.0
2018-May-26 02:30S 29°45' E 031°11'0 0.0
2018-May-26 02:00S 29°45' E 031°11'0 0.0
2018-May-26 01:30S 29°45' E 031°11'0 0.0
2018-May-26 01:00S 29°45' E 031°11'0 0.0
2018-May-26 00:30S 29°45' E 031°11'0 0.0
2018-May-26 00:00S 29°45' E 031°11'0 0.0
2018-May-25 23:30S 29°45' E 031°11'0 0.0
2018-May-25 23:00S 29°45' E 031°11'0 0.0
2018-May-25 22:30S 29°45' E 031°11'0 0.0
2018-May-25 22:00S 29°45' E 031°11'0 0.0
2018-May-25 21:30S 29°45' E 031°11'0 0.0
2018-May-25 21:00S 29°45' E 031°11'0 0.0
2018-May-25 20:30S 29°45' E 031°11'0 0.0
2018-May-25 20:00S 29°45' E 031°11'0 0.0
2018-May-25 19:30S 29°45' E 031°11'0 0.0
2018-May-25 19:00S 29°45' E 031°11'0 0.0
2018-May-25 18:30S 29°45' E 031°11'0 0.0
2018-May-25 18:00S 29°45' E 031°11'0 0.0
2018-May-25 17:30S 29°45' E 031°11'0 0.0
2018-May-25 17:00S 29°45' E 031°11'0 0.0
2018-May-25 16:30S 29°45' E 031°11'0 0.0
2018-May-25 16:00S 29°45' E 031°11'0 0.0
2018-May-25 15:30S 29°45' E 031°11'0 0.0
2018-May-25 15:00S 29°45' E 031°11'0 0.0
2018-May-25 14:30S 29°45' E 031°11'0 0.0
2018-May-25 14:00S 29°45' E 031°11'0 0.0
2018-May-25 13:30S 29°45' E 031°11'0 0.0
2018-May-25 13:00S 29°45' E 031°11'0 0.0
2018-May-25 12:30S 29°45' E 031°11'0 0.1
2018-May-25 12:00S 29°45' E 031°11'0 0.0
2018-May-25 11:30S 29°45' E 031°11'0 0.0
2018-May-25 11:00S 29°45' E 031°11'0 0.0
2018-May-25 10:30S 29°45' E 031°11'0 0.0
2018-May-25 10:00S 29°45' E 031°11'0 0.0
2018-May-25 09:30S 29°45' E 031°11'0 0.0
2018-May-25 09:00S 29°45' E 031°11'0 0.0
2018-May-25 08:30S 29°45' E 031°11'0 0.0
2018-May-25 08:00S 29°45' E 031°11'0 0.0
2018-May-25 07:30S 29°45' E 031°11'0 0.0
2018-May-25 07:00S 29°45' E 031°11'0 0.0
2018-May-25 06:30S 29°45' E 031°11'0 0.0
2018-May-25 06:00S 29°45' E 031°11'0 0.0
2018-May-25 05:30S 29°45' E 031°11'0 0.0
2018-May-25 05:00S 29°45' E 031°11'0 0.0
2018-May-25 04:30S 29°45' E 031°11'0 0.0
2018-May-25 04:00S 29°45' E 031°11'0 0.1
2018-May-25 03:30S 29°45' E 031°11'0 0.0
2018-May-25 03:00S 29°45' E 031°11'0 0.0
2018-May-25 02:30S 29°45' E 031°11'0 0.0
2018-May-25 02:00S 29°45' E 031°11'0 0.0
2018-May-25 01:30S 29°45' E 031°11'0 0.0
2018-May-25 01:00S 29°45' E 031°11'0 0.0
2018-May-25 00:30S 29°45' E 031°11'0 0.0
2018-May-25 00:00S 29°45' E 031°11'0 0.0
2018-May-24 23:30S 29°45' E 031°11'0 0.0
2018-May-24 23:00S 29°45' E 031°11'0 0.0
2018-May-24 22:30S 29°45' E 031°11'0 0.0
2018-May-24 22:00S 29°45' E 031°11'0 0.0
2018-May-24 21:30S 29°45' E 031°11'0 0.0
2018-May-24 21:00S 29°45' E 031°11'0 0.0
2018-May-24 20:30S 29°45' E 031°11'0 0.0
2018-May-24 20:00S 29°45' E 031°11'0 0.0
2018-May-24 19:30S 29°45' E 031°11'0 0.0
2018-May-24 19:00S 29°45' E 031°11'0 0.0
2018-May-24 18:30S 29°45' E 031°11'0 0.0
2018-May-24 18:00S 29°45' E 031°11'0 0.0
2018-May-24 17:30S 29°45' E 031°11'0 0.0
2018-May-24 17:00S 29°45' E 031°11'0 0.0
2018-May-24 16:30S 29°45' E 031°11'0 0.0
2018-May-24 16:00S 29°45' E 031°11'0 0.0
2018-May-24 15:30S 29°45' E 031°11'0 0.0
2018-May-24 15:00S 29°45' E 031°11'0 0.0
2018-May-24 14:30S 29°45' E 031°11'0 0.1
2018-May-24 14:00S 29°45' E 031°11'0 0.0
2018-May-24 09:00S 29°45' E 031°11'0 0.1
2018-May-24 08:30S 29°45' E 031°11'0 0.1
2018-May-24 08:00S 29°46' E 031°11'0 0.0
2018-May-24 07:30S 29°45' E 031°11'0 0.0
2018-May-24 07:00S 29°46' E 031°11'0 0.1
2018-May-24 06:30S 29°45' E 031°11'0 0.3
2018-May-24 06:00S 29°46' E 031°11'0 0.1
2018-May-24 05:30S 29°46' E 031°11'0 0.0
2018-May-24 05:00S 29°46' E 031°11'0 0.0
2018-May-24 04:30S 29°46' E 031°11'0 0.0
2018-May-24 04:00S 29°46' E 031°11'0 0.0
2018-May-24 03:30S 29°46' E 031°11'0 0.0
2018-May-24 03:00S 29°46' E 031°11'0 0.0
2018-May-24 02:30S 29°46' E 031°11'0 0.0
2018-May-24 02:00S 29°46' E 031°11'0 0.1
2018-May-24 01:30S 29°46' E 031°11'0 0.2
2018-May-24 01:00S 29°46' E 031°11'0 0.1
2018-May-24 00:30S 29°46' E 031°11'0 0.1
2018-May-24 00:00S 29°46' E 031°11'0 0.0
2018-May-23 23:30S 29°46' E 031°11'0 0.0
2018-May-23 23:00S 29°46' E 031°11'0 0.0
2018-May-23 22:30S 29°46' E 031°11'0 0.1
2018-May-23 22:00S 29°46' E 031°11'0 0.1
2018-May-23 21:30S 29°46' E 031°11'0 0.1
2018-May-23 21:00S 29°46' E 031°11'0 0.1
2018-May-23 20:30S 29°46' E 031°11'0 0.0
2018-May-23 20:00S 29°46' E 031°11'0 0.1
2018-May-23 19:30S 29°46' E 031°11'0 0.1
2018-May-23 19:00S 29°46' E 031°11'0 0.1
2018-May-23 18:30S 29°46' E 031°11'0 0.0
2018-May-23 18:00S 29°46' E 031°11'0 0.0
2018-May-23 17:30S 29°46' E 031°11'0 0.0
2018-May-23 17:00S 29°46' E 031°11'0 0.0
2018-May-23 16:30S 29°46' E 031°11'0 0.0
2018-May-23 16:00S 29°46' E 031°11'0 0.1
2018-May-23 15:30S 29°46' E 031°11'0 0.1
2018-May-23 15:00S 29°46' E 031°11'0 0.0
2018-May-23 14:30S 29°46' E 031°11'0 0.1
2018-May-23 14:00S 29°46' E 031°11'0 0.0
2018-May-23 13:30S 29°46' E 031°11'0 0.0
2018-May-23 13:00S 29°46' E 031°11'0 0.0
2018-May-23 12:30S 29°46' E 031°11'0 0.0
2018-May-23 11:48S 29°46' E 031°11'0 0.0
2018-May-23 11:30S 29°46' E 031°11'0 0.0
2018-May-23 11:00S 29°46' E 031°11'0 0.0
2018-May-23 10:30S 29°46' E 031°11'0 0.0
2018-May-23 10:00S 29°46' E 031°11'0 0.0
2018-May-23 09:30S 29°46' E 031°11'0 0.0
2018-May-23 09:00S 29°46' E 031°11'0 0.0
2018-May-23 08:30S 29°46' E 031°11'0 0.0
2018-May-23 08:00S 29°46' E 031°11'0 0.0
2018-May-23 07:30S 29°46' E 031°11'0 0.1
2018-May-23 07:00S 29°46' E 031°11'0 0.0
2018-May-23 06:30S 29°46' E 031°11'0 0.0
2018-May-23 06:00S 29°46' E 031°11'0 0.1
2018-May-23 05:30S 29°46' E 031°11'0 0.0
2018-May-23 05:00S 29°46' E 031°11'0 0.0
2018-May-23 04:30S 29°46' E 031°11'0 0.1
2018-May-23 04:00S 29°46' E 031°11'1 2.5
2018-May-23 03:31S 29°47' E 031°12'4 8.4
2018-May-23 03:00S 29°51' E 031°12'612.8
2018-May-23 02:30S 29°57' E 031°12'713.4
2018-May-23 02:00S 30°04' E 031°12'713.0
2018-May-23 01:30S 30°10' E 031°12'612.3
2018-May-23 01:01S 30°17' E 031°12'612.1
2018-May-23 00:30S 30°23' E 031°10'612.5
2018-May-23 00:00S 30°29' E 031°09'  
Track history (hours):
 
Tides and Currents Weather Stations Pressure Air Temp Water Temp Dewpoint Dewpoint Depression Visibility Wind Speed Wind Dir Waves Ship Positions

Nord Organiser

Last reported at 2018-May-29 15:15 UTC. Time now 2018-Jul-23 09:46 UTC.
Position S 29°39' E 031°59'.
Warning: this ship's position is 54 days out of date.

Length 182 m; draft 8.1 m.

Type: Tanker. MMSI: 370686000.

Date/timePositionNaut miles runAvg speedWind from/ knotsBaromVisibWave heightAir tempDewpointWater temp
2018-May-29 15:15S 29°39' E 031°59'410.2
2018-May-29 14:53S 29°40' E 031°55'410.0
2018-May-29 14:30S 29°41' E 031°51'5 9.6
2018-May-29 14:00S 29°42' E 031°45'510.0
2018-May-29 13:30S 29°43' E 031°39'612.2
2018-May-29 13:00S 29°44' E 031°33'612.6
2018-May-29 12:30S 29°45' E 031°26'612.9
2018-May-29 12:00S 29°47' E 031°18'612.8
2018-May-29 11:30S 29°49' E 031°11'612.4
2018-May-29 11:00S 29°51' E 031°05'3 6.7
2018-May-29 10:30S 29°53' E 031°02'0 0.0
2018-May-29 09:55S 29°53' E 031°02'0 0.0
2018-May-29 09:28S 29°53' E 031°02'0 0.0
2018-May-29 08:55S 29°53' E 031°02'0 0.0
2018-May-29 08:25S 29°53' E 031°02'0 0.0
2018-May-29 07:58S 29°53' E 031°02'0 0.0
2018-May-29 07:28S 29°53' E 031°02'0 0.0
2018-May-29 06:58S 29°53' E 031°02'  
2018-May-26 19:58S 29°53' E 031°02'0 0.0
2018-May-26 19:31S 29°53' E 031°02'0 0.2
2018-May-26 19:00S 29°53' E 031°02'3 5.4
2018-May-26 18:30S 29°51' E 031°04'3 6.9
2018-May-26 18:00S 29°48' E 031°06'4 8.7
2018-May-26 17:30S 29°46' E 031°10'1 1.6
2018-May-26 17:00S 29°45' E 031°11'0 0.0
2018-May-26 16:30S 29°45' E 031°11'0 0.0
2018-May-26 16:00S 29°45' E 031°11'0 0.0
2018-May-26 15:30S 29°45' E 031°11'0 0.0
2018-May-26 15:00S 29°45' E 031°11'0 0.0
2018-May-26 14:30S 29°45' E 031°11'0 0.1
2018-May-26 14:00S 29°45' E 031°11'0 0.0
2018-May-26 13:30S 29°45' E 031°11'0 0.1
2018-May-26 13:00S 29°45' E 031°11'0 0.0
2018-May-26 12:30S 29°45' E 031°11'0 0.1
2018-May-26 12:00S 29°45' E 031°11'0 0.0
2018-May-26 11:30S 29°45' E 031°11'0 0.1
2018-May-26 11:00S 29°45' E 031°11'0 0.0
2018-May-26 10:30S 29°45' E 031°11'0 0.0
2018-May-26 10:00S 29°45' E 031°11'0 0.0
2018-May-26 09:30S 29°45' E 031°11'0 0.0
2018-May-26 09:00S 29°45' E 031°11'0 0.0
2018-May-26 08:30S 29°45' E 031°11'0 0.0
2018-May-26 08:00S 29°45' E 031°11'0 0.0
2018-May-26 07:30S 29°45' E 031°11'0 0.0
2018-May-26 07:00S 29°45' E 031°11'0 0.0
2018-May-26 06:30S 29°45' E 031°11'0 0.0
2018-May-26 05:30S 29°45' E 031°11'0 0.0
2018-May-26 05:00S 29°45' E 031°11'0 0.0
2018-May-26 04:30S 29°45' E 031°11'0 0.0
2018-May-26 04:00S 29°45' E 031°11'0 0.0
2018-May-26 03:30S 29°45' E 031°11'0 0.0
2018-May-26 03:00S 29°45' E 031°11'0 0.0
2018-May-26 02:30S 29°45' E 031°11'0 0.0
2018-May-26 02:00S 29°45' E 031°11'0 0.0
2018-May-26 01:30S 29°45' E 031°11'0 0.0
2018-May-26 01:00S 29°45' E 031°11'0 0.0
2018-May-26 00:30S 29°45' E 031°11'0 0.0
2018-May-26 00:00S 29°45' E 031°11'0 0.0
2018-May-25 23:30S 29°45' E 031°11'0 0.0
2018-May-25 23:00S 29°45' E 031°11'0 0.0
2018-May-25 22:30S 29°45' E 031°11'0 0.0
2018-May-25 22:00S 29°45' E 031°11'0 0.0
2018-May-25 21:30S 29°45' E 031°11'0 0.0
2018-May-25 21:00S 29°45' E 031°11'0 0.0
2018-May-25 20:30S 29°45' E 031°11'0 0.0
2018-May-25 20:00S 29°45' E 031°11'0 0.0
2018-May-25 19:30S 29°45' E 031°11'0 0.0
2018-May-25 19:00S 29°45' E 031°11'0 0.0
2018-May-25 18:30S 29°45' E 031°11'0 0.0
2018-May-25 18:00S 29°45' E 031°11'0 0.0
2018-May-25 17:30S 29°45' E 031°11'0 0.0
2018-May-25 17:00S 29°45' E 031°11'0 0.0
2018-May-25 16:30S 29°45' E 031°11'0 0.0
2018-May-25 16:00S 29°45' E 031°11'0 0.0
2018-May-25 15:30S 29°45' E 031°11'0 0.0
2018-May-25 15:00S 29°45' E 031°11'0 0.0
2018-May-25 14:30S 29°45' E 031°11'0 0.0
2018-May-25 14:00S 29°45' E 031°11'0 0.0
2018-May-25 13:30S 29°45' E 031°11'0 0.0
2018-May-25 13:00S 29°45' E 031°11'0 0.0
2018-May-25 12:30S 29°45' E 031°11'0 0.1
2018-May-25 12:00S 29°45' E 031°11'0 0.0
2018-May-25 11:30S 29°45' E 031°11'0 0.0
2018-May-25 11:00S 29°45' E 031°11'0 0.0
2018-May-25 10:30S 29°45' E 031°11'0 0.0
2018-May-25 10:00S 29°45' E 031°11'0 0.0
2018-May-25 09:30S 29°45' E 031°11'0 0.0
2018-May-25 09:00S 29°45' E 031°11'0 0.0
2018-May-25 08:30S 29°45' E 031°11'0 0.0
2018-May-25 08:00S 29°45' E 031°11'0 0.0
2018-May-25 07:30S 29°45' E 031°11'0 0.0
2018-May-25 07:00S 29°45' E 031°11'0 0.0
2018-May-25 06:30S 29°45' E 031°11'0 0.0
2018-May-25 06:00S 29°45' E 031°11'0 0.0
2018-May-25 05:30S 29°45' E 031°11'0 0.0
2018-May-25 05:00S 29°45' E 031°11'0 0.0
2018-May-25 04:30S 29°45' E 031°11'0 0.0
2018-May-25 04:00S 29°45' E 031°11'0 0.1
2018-May-25 03:30S 29°45' E 031°11'0 0.0
2018-May-25 03:00S 29°45' E 031°11'0 0.0
2018-May-25 02:30S 29°45' E 031°11'0 0.0
2018-May-25 02:00S 29°45' E 031°11'0 0.0
2018-May-25 01:30S 29°45' E 031°11'0 0.0
2018-May-25 01:00S 29°45' E 031°11'0 0.0
2018-May-25 00:30S 29°45' E 031°11'0 0.0
2018-May-25 00:00S 29°45' E 031°11'0 0.0
2018-May-24 23:30S 29°45' E 031°11'0 0.0
2018-May-24 23:00S 29°45' E 031°11'0 0.0
2018-May-24 22:30S 29°45' E 031°11'0 0.0
2018-May-24 22:00S 29°45' E 031°11'0 0.0
2018-May-24 21:30S 29°45' E 031°11'0 0.0
2018-May-24 21:00S 29°45' E 031°11'0 0.0
2018-May-24 20:30S 29°45' E 031°11'0 0.0
2018-May-24 20:00S 29°45' E 031°11'0 0.0
2018-May-24 19:30S 29°45' E 031°11'0 0.0
2018-May-24 19:00S 29°45' E 031°11'0 0.0
2018-May-24 18:30S 29°45' E 031°11'0 0.0
2018-May-24 18:00S 29°45' E 031°11'0 0.0
2018-May-24 17:30S 29°45' E 031°11'0 0.0
2018-May-24 17:00S 29°45' E 031°11'0 0.0
2018-May-24 16:30S 29°45' E 031°11'0 0.0
2018-May-24 16:00S 29°45' E 031°11'0 0.0
2018-May-24 15:30S 29°45' E 031°11'0 0.0
2018-May-24 15:00S 29°45' E 031°11'0 0.0
2018-May-24 14:30S 29°45' E 031°11'0 0.1
2018-May-24 14:00S 29°45' E 031°11'0 0.0
2018-May-24 09:00S 29°45' E 031°11'0 0.1
2018-May-24 08:30S 29°45' E 031°11'0 0.1
2018-May-24 08:00S 29°46' E 031°11'0 0.0
2018-May-24 07:30S 29°45' E 031°11'0 0.0
2018-May-24 07:00S 29°46' E 031°11'0 0.1
2018-May-24 06:30S 29°45' E 031°11'0 0.3
2018-May-24 06:00S 29°46' E 031°11'0 0.1
2018-May-24 05:30S 29°46' E 031°11'0 0.0
2018-May-24 05:00S 29°46' E 031°11'0 0.0
2018-May-24 04:30S 29°46' E 031°11'0 0.0
2018-May-24 04:00S 29°46' E 031°11'0 0.0
2018-May-24 03:30S 29°46' E 031°11'0 0.0
2018-May-24 03:00S 29°46' E 031°11'0 0.0
2018-May-24 02:30S 29°46' E 031°11'0 0.0
2018-May-24 02:00S 29°46' E 031°11'0 0.1
2018-May-24 01:30S 29°46' E 031°11'0 0.2
2018-May-24 01:00S 29°46' E 031°11'0 0.1
2018-May-24 00:30S 29°46' E 031°11'0 0.1
2018-May-24 00:00S 29°46' E 031°11'0 0.0
2018-May-23 23:30S 29°46' E 031°11'0 0.0
2018-May-23 23:00S 29°46' E 031°11'0 0.0
2018-May-23 22:30S 29°46' E 031°11'0 0.1
2018-May-23 22:00S 29°46' E 031°11'0 0.1
2018-May-23 21:30S 29°46' E 031°11'0 0.1
2018-May-23 21:00S 29°46' E 031°11'0 0.1
2018-May-23 20:30S 29°46' E 031°11'0 0.0
2018-May-23 20:00S 29°46' E 031°11'0 0.1
2018-May-23 19:30S 29°46' E 031°11'0 0.1
2018-May-23 19:00S 29°46' E 031°11'0 0.1
2018-May-23 18:30S 29°46' E 031°11'0 0.0
2018-May-23 18:00S 29°46' E 031°11'0 0.0
2018-May-23 17:30S 29°46' E 031°11'0 0.0
2018-May-23 17:00S 29°46' E 031°11'0 0.0
2018-May-23 16:30S 29°46' E 031°11'0 0.0
2018-May-23 16:00S 29°46' E 031°11'0 0.1
2018-May-23 15:30S 29°46' E 031°11'0 0.1
2018-May-23 15:00S 29°46' E 031°11'0 0.0
2018-May-23 14:30S 29°46' E 031°11'0 0.1
2018-May-23 14:00S 29°46' E 031°11'0 0.0
2018-May-23 13:30S 29°46' E 031°11'0 0.0
2018-May-23 13:00S 29°46' E 031°11'0 0.0
2018-May-23 12:30S 29°46' E 031°11'0 0.0
2018-May-23 11:48S 29°46' E 031°11'0 0.0
2018-May-23 11:30S 29°46' E 031°11'0 0.0
2018-May-23 11:00S 29°46' E 031°11'0 0.0
2018-May-23 10:30S 29°46' E 031°11'0 0.0
2018-May-23 10:00S 29°46' E 031°11'0 0.0
2018-May-23 09:30S 29°46' E 031°11'0 0.0
2018-May-23 09:00S 29°46' E 031°11'0 0.0
2018-May-23 08:30S 29°46' E 031°11'0 0.0
2018-May-23 08:00S 29°46' E 031°11'0 0.0
2018-May-23 07:30S 29°46' E 031°11'0 0.1
2018-May-23 07:00S 29°46' E 031°11'0 0.0
2018-May-23 06:30S 29°46' E 031°11'0 0.0
2018-May-23 06:00S 29°46' E 031°11'0 0.1
2018-May-23 05:30S 29°46' E 031°11'0 0.0
2018-May-23 05:00S 29°46' E 031°11'0 0.0
2018-May-23 04:30S 29°46' E 031°11'0 0.1
2018-May-23 04:00S 29°46' E 031°11'1 2.5
2018-May-23 03:31S 29°47' E 031°12'4 8.4
2018-May-23 03:00S 29°51' E 031°12'612.8
2018-May-23 02:30S 29°57' E 031°12'713.4
2018-May-23 02:00S 30°04' E 031°12'713.0
2018-May-23 01:30S 30°10' E 031°12'612.3
2018-May-23 01:01S 30°17' E 031°12'612.1
2018-May-23 00:30S 30°23' E 031°10'612.5
2018-May-23 00:00S 30°29' E 031°09'  

Dump ship's entire track history